sensor_id;sensor_type;location;lat;lon;timestamp;temperature;humidity
48162;DHT22;33950;48.154;16.316;2023-01-26T00:00:16;4.10;99.20
48162;DHT22;33950;48.154;16.316;2023-01-26T00:03:02;4.10;99.30
48162;DHT22;33950;48.154;16.316;2023-01-26T00:05:48;4.10;99.20
48162;DHT22;33950;48.154;16.316;2023-01-26T00:08:35;4.10;99.50
48162;DHT22;33950;48.154;16.316;2023-01-26T00:11:24;4.10;99.60
48162;DHT22;33950;48.154;16.316;2023-01-26T00:14:15;4.10;99.30
48162;DHT22;33950;48.154;16.316;2023-01-26T00:17:01;4.00;99.30
48162;DHT22;33950;48.154;16.316;2023-01-26T00:19:47;4.00;99.60
48162;DHT22;33950;48.154;16.316;2023-01-26T00:22:33;4.00;99.60
48162;DHT22;33950;48.154;16.316;2023-01-26T00:25:19;4.10;99.50
48162;DHT22;33950;48.154;16.316;2023-01-26T00:28:05;4.00;99.50
48162;DHT22;33950;48.154;16.316;2023-01-26T00:30:53;4.00;99.70
48162;DHT22;33950;48.154;16.316;2023-01-26T00:33:39;4.10;99.70
48162;DHT22;33950;48.154;16.316;2023-01-26T00:36:25;4.10;99.60
48162;DHT22;33950;48.154;16.316;2023-01-26T00:39:12;4.10;99.60
48162;DHT22;33950;48.154;16.316;2023-01-26T00:41:58;4.10;99.40
48162;DHT22;33950;48.154;16.316;2023-01-26T00:44:56;4.00;99.60
48162;DHT22;33950;48.154;16.316;2023-01-26T00:47:43;4.00;99.60
48162;DHT22;33950;48.154;16.316;2023-01-26T00:50:29;4.00;99.50
48162;DHT22;33950;48.154;16.316;2023-01-26T00:53:16;4.00;99.60
48162;DHT22;33950;48.154;16.316;2023-01-26T00:56:02;4.00;99.70
48162;DHT22;33950;48.154;16.316;2023-01-26T00:58:48;3.90;99.60
48162;DHT22;33950;48.154;16.316;2023-01-26T01:01:34;4.00;99.90
48162;DHT22;33950;48.154;16.316;2023-01-26T01:04:21;4.00;99.80
48162;DHT22;33950;48.154;16.316;2023-01-26T01:07:09;4.00;99.80
48162;DHT22;33950;48.154;16.316;2023-01-26T01:09:55;4.00;99.60
48162;DHT22;33950;48.154;16.316;2023-01-26T01:12:42;4.00;99.70
48162;DHT22;33950;48.154;16.316;2023-01-26T01:15:28;3.80;99.80
48162;DHT22;33950;48.154;16.316;2023-01-26T01:18:14;3.80;99.40
48162;DHT22;33950;48.154;16.316;2023-01-26T01:21:05;3.80;99.90
48162;DHT22;33950;48.154;16.316;2023-01-26T01:23:51;3.90;99.90
48162;DHT22;33950;48.154;16.316;2023-01-26T01:26:37;4.00;99.90
48162;DHT22;33950;48.154;16.316;2023-01-26T01:29:23;4.00;99.90
48162;DHT22;33950;48.154;16.316;2023-01-26T01:32:10;4.10;99.90
48162;DHT22;33950;48.154;16.316;2023-01-26T01:34:56;4.10;99.80
48162;DHT22;33950;48.154;16.316;2023-01-26T01:37:43;4.00;99.70
48162;DHT22;33950;48.154;16.316;2023-01-26T01:40:29;4.00;99.60
48162;DHT22;33950;48.154;16.316;2023-01-26T01:43:15;4.00;99.60
48162;DHT22;33950;48.154;16.316;2023-01-26T01:46:02;4.00;99.90
48162;DHT22;33950;48.154;16.316;2023-01-26T01:48:54;4.00;99.90
48162;DHT22;33950;48.154;16.316;2023-01-26T01:51:43;4.00;99.90
48162;DHT22;33950;48.154;16.316;2023-01-26T01:54:34;4.10;99.90
48162;DHT22;33950;48.154;16.316;2023-01-26T01:57:23;4.10;99.80
48162;DHT22;33950;48.154;16.316;2023-01-26T02:00:15;4.10;99.70
48162;DHT22;33950;48.154;16.316;2023-01-26T02:03:05;4.10;99.70
48162;DHT22;33950;48.154;16.316;2023-01-26T02:06:05;4.10;99.60
48162;DHT22;33950;48.154;16.316;2023-01-26T02:08:53;4.10;99.80
48162;DHT22;33950;48.154;16.316;2023-01-26T02:11:42;4.20;99.80
48162;DHT22;33950;48.154;16.316;2023-01-26T02:14:31;4.10;99.90
48162;DHT22;33950;48.154;16.316;2023-01-26T02:17:17;4.10;99.70
48162;DHT22;33950;48.154;16.316;2023-01-26T02:20:10;4.20;99.70
48162;DHT22;33950;48.154;16.316;2023-01-26T02:23:01;4.20;99.70
48162;DHT22;33950;48.154;16.316;2023-01-26T02:26:07;4.10;99.70
48162;DHT22;33950;48.154;16.316;2023-01-26T02:28:56;4.20;99.80
48162;DHT22;33950;48.154;16.316;2023-01-26T02:31:42;4.30;99.70
48162;DHT22;33950;48.154;16.316;2023-01-26T02:34:29;4.30;99.60
48162;DHT22;33950;48.154;16.316;2023-01-26T02:37:15;4.30;99.60
48162;DHT22;33950;48.154;16.316;2023-01-26T02:40:06;4.40;99.60
48162;DHT22;33950;48.154;16.316;2023-01-26T02:42:55;4.30;99.80
48162;DHT22;33950;48.154;16.316;2023-01-26T02:45:42;4.30;99.50
48162;DHT22;33950;48.154;16.316;2023-01-26T02:48:28;4.20;99.50
48162;DHT22;33950;48.154;16.316;2023-01-26T02:51:33;4.20;99.50
48162;DHT22;33950;48.154;16.316;2023-01-26T02:54:19;4.00;99.60
48162;DHT22;33950;48.154;16.316;2023-01-26T02:57:23;4.10;99.70
48162;DHT22;33950;48.154;16.316;2023-01-26T03:00:14;4.10;99.60
48162;DHT22;33950;48.154;16.316;2023-01-26T03:03:00;4.10;99.80
48162;DHT22;33950;48.154;16.316;2023-01-26T03:05:47;4.10;99.80
48162;DHT22;33950;48.154;16.316;2023-01-26T03:08:33;4.10;99.70
48162;DHT22;33950;48.154;16.316;2023-01-26T03:11:19;4.10;99.80
48162;DHT22;33950;48.154;16.316;2023-01-26T03:14:05;4.00;99.80
48162;DHT22;33950;48.154;16.316;2023-01-26T03:16:53;4.00;99.70
48162;DHT22;33950;48.154;16.316;2023-01-26T03:19:40;4.00;99.80
48162;DHT22;33950;48.154;16.316;2023-01-26T03:22:44;4.00;99.70
48162;DHT22;33950;48.154;16.316;2023-01-26T03:25:59;3.90;99.80
48162;DHT22;33950;48.154;16.316;2023-01-26T03:29:04;4.00;99.90
48162;DHT22;33950;48.154;16.316;2023-01-26T03:31:50;3.90;99.80
48162;DHT22;33950;48.154;16.316;2023-01-26T03:34:37;3.90;99.90
48162;DHT22;33950;48.154;16.316;2023-01-26T03:37:23;3.90;99.90
48162;DHT22;33950;48.154;16.316;2023-01-26T03:40:11;4.00;99.90
48162;DHT22;33950;48.154;16.316;2023-01-26T03:43:15;4.00;99.90
48162;DHT22;33950;48.154;16.316;2023-01-26T03:46:20;4.00;99.90
48162;DHT22;33950;48.154;16.316;2023-01-26T03:49:24;4.00;99.80
48162;DHT22;33950;48.154;16.316;2023-01-26T03:52:31;4.00;99.90
48162;DHT22;33950;48.154;16.316;2023-01-26T03:55:36;4.00;99.90
48162;DHT22;33950;48.154;16.316;2023-01-26T03:58:40;4.00;99.80
48162;DHT22;33950;48.154;16.316;2023-01-26T04:01:26;4.00;99.90
48162;DHT22;33950;48.154;16.316;2023-01-26T04:04:12;4.00;99.90
48162;DHT22;33950;48.154;16.316;2023-01-26T04:07:17;3.90;99.90
48162;DHT22;33950;48.154;16.316;2023-01-26T04:10:24;3.80;99.90
48162;DHT22;33950;48.154;16.316;2023-01-26T04:13:10;3.80;99.90
48162;DHT22;33950;48.154;16.316;2023-01-26T04:16:14;3.80;99.90
48162;DHT22;33950;48.154;16.316;2023-01-26T04:19:19;3.80;99.90
48162;DHT22;33950;48.154;16.316;2023-01-26T04:22:24;3.80;99.90
48162;DHT22;33950;48.154;16.316;2023-01-26T04:25:11;3.80;99.90
48162;DHT22;33950;48.154;16.316;2023-01-26T04:27:59;3.80;99.90
48162;DHT22;33950;48.154;16.316;2023-01-26T04:30:45;3.70;99.90
48162;DHT22;33950;48.154;16.316;2023-01-26T04:33:31;3.70;99.90
48162;DHT22;33950;48.154;16.316;2023-01-26T04:36:17;3.60;99.90
48162;DHT22;33950;48.154;16.316;2023-01-26T04:39:03;3.60;99.90
48162;DHT22;33950;48.154;16.316;2023-01-26T04:41:49;3.70;99.90
48162;DHT22;33950;48.154;16.316;2023-01-26T04:44:37;3.70;99.90
48162;DHT22;33950;48.154;16.316;2023-01-26T04:47:23;3.70;99.90
48162;DHT22;33950;48.154;16.316;2023-01-26T04:50:09;3.70;99.90
48162;DHT22;33950;48.154;16.316;2023-01-26T04:52:55;3.70;99.90
48162;DHT22;33950;48.154;16.316;2023-01-26T04:55:42;3.70;99.90
48162;DHT22;33950;48.154;16.316;2023-01-26T04:58:28;3.60;99.90
48162;DHT22;33950;48.154;16.316;2023-01-26T05:01:15;3.60;99.90
48162;DHT22;33950;48.154;16.316;2023-01-26T05:04:03;3.60;99.90
48162;DHT22;33950;48.154;16.316;2023-01-26T05:06:49;3.60;99.90
48162;DHT22;33950;48.154;16.316;2023-01-26T05:09:35;3.60;99.90
48162;DHT22;33950;48.154;16.316;2023-01-26T05:12:21;3.60;99.90
48162;DHT22;33950;48.154;16.316;2023-01-26T05:15:20;3.70;99.90
48162;DHT22;33950;48.154;16.316;2023-01-26T05:18:09;3.70;99.90
48162;DHT22;33950;48.154;16.316;2023-01-26T05:20:55;3.60;99.90
48162;DHT22;33950;48.154;16.316;2023-01-26T05:23:41;3.70;99.90
48162;DHT22;33950;48.154;16.316;2023-01-26T05:26:27;3.60;99.90
48162;DHT22;33950;48.154;16.316;2023-01-26T05:29:14;3.60;99.90
48162;DHT22;33950;48.154;16.316;2023-01-26T05:32:00;3.60;99.90
48162;DHT22;33950;48.154;16.316;2023-01-26T05:34:48;3.60;99.90
48162;DHT22;33950;48.154;16.316;2023-01-26T05:37:34;3.60;99.90
48162;DHT22;33950;48.154;16.316;2023-01-26T05:40:20;3.60;99.90
48162;DHT22;33950;48.154;16.316;2023-01-26T05:43:06;3.60;99.90
48162;DHT22;33950;48.154;16.316;2023-01-26T05:45:55;3.60;99.90
48162;DHT22;33950;48.154;16.316;2023-01-26T05:48:41;3.60;99.90
48162;DHT22;33950;48.154;16.316;2023-01-26T05:51:29;3.70;99.90
48162;DHT22;33950;48.154;16.316;2023-01-26T05:54:15;3.70;99.90
48162;DHT22;33950;48.154;16.316;2023-01-26T05:57:01;3.70;99.90
48162;DHT22;33950;48.154;16.316;2023-01-26T05:59:47;3.70;99.90
48162;DHT22;33950;48.154;16.316;2023-01-26T06:02:34;3.80;99.90
48162;DHT22;33950;48.154;16.316;2023-01-26T06:05:20;3.70;99.90
48162;DHT22;33950;48.154;16.316;2023-01-26T06:08:07;3.70;99.90
48162;DHT22;33950;48.154;16.316;2023-01-26T06:10:58;3.80;99.90
48162;DHT22;33950;48.154;16.316;2023-01-26T06:13:44;3.80;99.90
48162;DHT22;33950;48.154;16.316;2023-01-26T06:16:30;3.90;99.90
48162;DHT22;33950;48.154;16.316;2023-01-26T06:19:16;3.90;99.90
48162;DHT22;33950;48.154;16.316;2023-01-26T06:22:02;4.00;99.90
48162;DHT22;33950;48.154;16.316;2023-01-26T06:24:50;4.00;99.90
48162;DHT22;33950;48.154;16.316;2023-01-26T06:27:36;4.00;99.90
48162;DHT22;33950;48.154;16.316;2023-01-26T06:30:26;4.00;99.90
48162;DHT22;33950;48.154;16.316;2023-01-26T06:33:12;3.90;99.90
48162;DHT22;33950;48.154;16.316;2023-01-26T06:36:00;3.90;99.90
48162;DHT22;33950;48.154;16.316;2023-01-26T06:38:48;3.90;99.90
48162;DHT22;33950;48.154;16.316;2023-01-26T06:41:35;3.90;99.90
48162;DHT22;33950;48.154;16.316;2023-01-26T06:44:21;3.90;99.90
48162;DHT22;33950;48.154;16.316;2023-01-26T06:47:08;4.00;99.90
48162;DHT22;33950;48.154;16.316;2023-01-26T06:49:54;4.00;99.90
48162;DHT22;33950;48.154;16.316;2023-01-26T06:52:41;4.00;99.90
48162;DHT22;33950;48.154;16.316;2023-01-26T06:55:33;4.00;99.90
48162;DHT22;33950;48.154;16.316;2023-01-26T06:58:21;4.00;99.90
48162;DHT22;33950;48.154;16.316;2023-01-26T07:01:08;3.90;99.90
48162;DHT22;33950;48.154;16.316;2023-01-26T07:03:54;3.80;99.90
48162;DHT22;33950;48.154;16.316;2023-01-26T07:06:40;3.80;99.90
48162;DHT22;33950;48.154;16.316;2023-01-26T07:09:27;3.70;99.90
48162;DHT22;33950;48.154;16.316;2023-01-26T07:12:13;3.60;99.90
48162;DHT22;33950;48.154;16.316;2023-01-26T07:15:00;3.60;99.90
48162;DHT22;33950;48.154;16.316;2023-01-26T07:17:46;3.70;99.90
48162;DHT22;33950;48.154;16.316;2023-01-26T07:20:32;3.70;99.90
48162;DHT22;33950;48.154;16.316;2023-01-26T16:25:56;4.20;99.10
48162;DHT22;33950;48.154;16.316;2023-01-26T16:28:42;4.10;99.20
48162;DHT22;33950;48.154;16.316;2023-01-26T16:31:31;4.10;99.40
48162;DHT22;33950;48.154;16.316;2023-01-26T16:34:17;4.10;99.50
48162;DHT22;33950;48.154;16.316;2023-01-26T16:37:03;4.00;99.50
48162;DHT22;33950;48.154;16.316;2023-01-26T16:39:49;4.10;99.40
48162;DHT22;33950;48.154;16.316;2023-01-26T16:42:38;4.10;99.50
48162;DHT22;33950;48.154;16.316;2023-01-26T16:45:26;4.10;99.50
48162;DHT22;33950;48.154;16.316;2023-01-26T16:48:17;4.10;99.40
48162;DHT22;33950;48.154;16.316;2023-01-26T16:51:14;4.10;99.50
48162;DHT22;33950;48.154;16.316;2023-01-26T16:54:02;4.10;99.50
48162;DHT22;33950;48.154;16.316;2023-01-26T16:56:48;4.20;99.50
48162;DHT22;33950;48.154;16.316;2023-01-26T16:59:36;4.20;99.40
48162;DHT22;33950;48.154;16.316;2023-01-26T17:02:23;4.20;99.30
48162;DHT22;33950;48.154;16.316;2023-01-26T17:05:13;4.10;99.30
48162;DHT22;33950;48.154;16.316;2023-01-26T17:08:02;4.10;99.60
48162;DHT22;33950;48.154;16.316;2023-01-26T17:10:50;4.10;99.70
48162;DHT22;33950;48.154;16.316;2023-01-26T17:13:39;4.10;99.80
48162;DHT22;33950;48.154;16.316;2023-01-26T17:16:28;4.20;99.70
48162;DHT22;33950;48.154;16.316;2023-01-26T17:19:14;4.20;99.60
48162;DHT22;33950;48.154;16.316;2023-01-26T17:22:00;4.20;99.60
48162;DHT22;33950;48.154;16.316;2023-01-26T17:24:50;4.10;99.70
48162;DHT22;33950;48.154;16.316;2023-01-26T17:27:36;4.00;99.60
48162;DHT22;33950;48.154;16.316;2023-01-26T17:30:22;3.90;99.60
48162;DHT22;33950;48.154;16.316;2023-01-26T17:33:10;4.00;99.80
48162;DHT22;33950;48.154;16.316;2023-01-26T17:35:59;4.00;99.70
48162;DHT22;33950;48.154;16.316;2023-01-26T17:38:46;3.90;99.80
48162;DHT22;33950;48.154;16.316;2023-01-26T17:41:32;3.80;99.90
48162;DHT22;33950;48.154;16.316;2023-01-26T17:44:24;3.70;99.90
48162;DHT22;33950;48.154;16.316;2023-01-26T17:47:12;3.70;99.90
48162;DHT22;33950;48.154;16.316;2023-01-26T17:50:04;3.70;99.90
48162;DHT22;33950;48.154;16.316;2023-01-26T17:52:53;3.60;99.90
48162;DHT22;33950;48.154;16.316;2023-01-26T17:55:39;3.40;99.90
48162;DHT22;33950;48.154;16.316;2023-01-26T17:58:25;3.40;99.90
48162;DHT22;33950;48.154;16.316;2023-01-26T18:01:11;3.30;99.90
48162;DHT22;33950;48.154;16.316;2023-01-26T18:03:57;3.20;99.90
48162;DHT22;33950;48.154;16.316;2023-01-26T18:06:45;3.10;99.90
48162;DHT22;33950;48.154;16.316;2023-01-26T18:09:31;3.00;99.90
48162;DHT22;33950;48.154;16.316;2023-01-26T18:12:17;3.00;99.90
48162;DHT22;33950;48.154;16.316;2023-01-26T18:15:04;3.00;99.90
48162;DHT22;33950;48.154;16.316;2023-01-26T18:17:51;3.00;99.90
48162;DHT22;33950;48.154;16.316;2023-01-26T18:20:37;3.10;99.90
48162;DHT22;33950;48.154;16.316;2023-01-26T18:23:24;3.10;99.90
48162;DHT22;33950;48.154;16.316;2023-01-26T18:26:10;3.10;99.90
48162;DHT22;33950;48.154;16.316;2023-01-26T18:28:57;3.00;99.90
48162;DHT22;33950;48.154;16.316;2023-01-26T18:31:43;3.00;99.90
48162;DHT22;33950;48.154;16.316;2023-01-26T18:34:29;3.00;99.90
48162;DHT22;33950;48.154;16.316;2023-01-26T18:37:15;2.90;99.90
48162;DHT22;33950;48.154;16.316;2023-01-26T18:40:07;2.90;99.90
48162;DHT22;33950;48.154;16.316;2023-01-26T18:42:53;2.90;99.90
48162;DHT22;33950;48.154;16.316;2023-01-26T18:45:40;3.00;99.90
48162;DHT22;33950;48.154;16.316;2023-01-26T18:48:27;3.00;99.90
48162;DHT22;33950;48.154;16.316;2023-01-26T18:51:16;2.90;99.90
48162;DHT22;33950;48.154;16.316;2023-01-26T18:54:04;2.80;99.90
48162;DHT22;33950;48.154;16.316;2023-01-26T18:56:51;2.90;99.90
48162;DHT22;33950;48.154;16.316;2023-01-26T18:59:38;2.90;99.90
48162;DHT22;33950;48.154;16.316;2023-01-26T19:02:24;2.90;99.90
48162;DHT22;33950;48.154;16.316;2023-01-26T19:05:10;2.80;99.90
48162;DHT22;33950;48.154;16.316;2023-01-26T19:07:56;2.80;99.90
48162;DHT22;33950;48.154;16.316;2023-01-26T19:10:42;2.90;99.90
48162;DHT22;33950;48.154;16.316;2023-01-26T19:13:30;2.90;99.90
48162;DHT22;33950;48.154;16.316;2023-01-26T19:16:16;2.90;99.90
48162;DHT22;33950;48.154;16.316;2023-01-26T19:19:02;2.90;99.90
48162;DHT22;33950;48.154;16.316;2023-01-26T19:21:48;3.00;99.90
48162;DHT22;33950;48.154;16.316;2023-01-26T19:24:34;2.90;99.90
48162;DHT22;33950;48.154;16.316;2023-01-26T19:27:20;2.90;99.90
48162;DHT22;33950;48.154;16.316;2023-01-26T19:30:15;2.90;99.90
48162;DHT22;33950;48.154;16.316;2023-01-26T19:33:01;2.90;99.90
48162;DHT22;33950;48.154;16.316;2023-01-26T19:36:06;2.80;99.90
48162;DHT22;33950;48.154;16.316;2023-01-26T19:38:53;2.70;99.90
48162;DHT22;33950;48.154;16.316;2023-01-26T19:41:39;2.70;99.90
48162;DHT22;33950;48.154;16.316;2023-01-26T19:44:26;2.70;99.90
48162;DHT22;33950;48.154;16.316;2023-01-26T19:47:16;2.70;99.90
48162;DHT22;33950;48.154;16.316;2023-01-26T19:50:02;2.70;99.90
48162;DHT22;33950;48.154;16.316;2023-01-26T19:53:12;2.70;99.90
48162;DHT22;33950;48.154;16.316;2023-01-26T19:55:58;2.60;99.90
48162;DHT22;33950;48.154;16.316;2023-01-26T19:58:48;2.60;99.90
48162;DHT22;33950;48.154;16.316;2023-01-26T20:01:37;2.50;99.90
48162;DHT22;33950;48.154;16.316;2023-01-26T20:04:25;2.60;99.90
48162;DHT22;33950;48.154;16.316;2023-01-26T20:07:11;2.50;99.90
48162;DHT22;33950;48.154;16.316;2023-01-26T20:09:57;2.50;99.90
48162;DHT22;33950;48.154;16.316;2023-01-26T20:12:43;2.50;99.90
48162;DHT22;33950;48.154;16.316;2023-01-26T20:15:29;2.50;99.90
48162;DHT22;33950;48.154;16.316;2023-01-26T20:18:17;2.60;99.90
48162;DHT22;33950;48.154;16.316;2023-01-26T20:21:07;2.60;99.90
48162;DHT22;33950;48.154;16.316;2023-01-26T20:23:53;2.60;99.90
48162;DHT22;33950;48.154;16.316;2023-01-26T20:26:40;2.60;99.90
48162;DHT22;33950;48.154;16.316;2023-01-26T20:29:31;2.60;99.90
48162;DHT22;33950;48.154;16.316;2023-01-26T20:32:18;2.60;99.90
48162;DHT22;33950;48.154;16.316;2023-01-26T20:35:04;2.60;99.90
48162;DHT22;33950;48.154;16.316;2023-01-26T20:37:52;2.60;99.90
48162;DHT22;33950;48.154;16.316;2023-01-26T20:40:39;2.70;99.90
48162;DHT22;33950;48.154;16.316;2023-01-26T20:43:25;2.80;99.90
48162;DHT22;33950;48.154;16.316;2023-01-26T20:46:12;2.70;99.90
48162;DHT22;33950;48.154;16.316;2023-01-26T20:48:59;2.70;99.90
48162;DHT22;33950;48.154;16.316;2023-01-26T20:51:46;2.70;99.90
48162;DHT22;33950;48.154;16.316;2023-01-26T20:54:36;2.80;99.90
48162;DHT22;33950;48.154;16.316;2023-01-26T20:57:23;2.90;99.90
48162;DHT22;33950;48.154;16.316;2023-01-26T21:00:10;2.90;99.80
48162;DHT22;33950;48.154;16.316;2023-01-26T21:06:06;2.90;99.90
48162;DHT22;33950;48.154;16.316;2023-01-26T21:08:55;3.00;99.80
48162;DHT22;33950;48.154;16.316;2023-01-26T21:11:46;3.00;99.80
48162;DHT22;33950;48.154;16.316;2023-01-26T21:14:38;3.00;99.80
48162;DHT22;33950;48.154;16.316;2023-01-26T21:17:24;3.00;99.80
48162;DHT22;33950;48.154;16.316;2023-01-26T21:20:28;3.10;99.70
48162;DHT22;33950;48.154;16.316;2023-01-26T21:26:56;3.20;99.70
48162;DHT22;33950;48.154;16.316;2023-01-26T21:29:45;3.20;99.60
48162;DHT22;33950;48.154;16.316;2023-01-26T21:32:34;3.10;99.20
48162;DHT22;33950;48.154;16.316;2023-01-26T21:35:26;2.90;99.40
48162;DHT22;33950;48.154;16.316;2023-01-26T21:38:12;2.90;99.50
48162;DHT22;33950;48.154;16.316;2023-01-26T21:41:02;2.90;99.60
48162;DHT22;33950;48.154;16.316;2023-01-26T21:43:55;2.90;99.60
48162;DHT22;33950;48.154;16.316;2023-01-26T21:46:43;2.80;99.40
48162;DHT22;33950;48.154;16.316;2023-01-26T21:49:30;2.80;99.70
48162;DHT22;33950;48.154;16.316;2023-01-26T21:52:16;2.90;99.60
48162;DHT22;33950;48.154;16.316;2023-01-26T21:55:21;3.00;99.50
48162;DHT22;33950;48.154;16.316;2023-01-26T21:58:10;3.00;99.40
48162;DHT22;33950;48.154;16.316;2023-01-26T22:01:17;3.00;99.30
48162;DHT22;33950;48.154;16.316;2023-01-26T22:04:05;2.90;99.20
48162;DHT22;33950;48.154;16.316;2023-01-26T22:06:52;2.90;99.30
48162;DHT22;33950;48.154;16.316;2023-01-26T22:09:39;3.00;99.20
48162;DHT22;33950;48.154;16.316;2023-01-26T22:12:25;3.00;99.20
48162;DHT22;33950;48.154;16.316;2023-01-26T22:15:12;2.90;99.00
48162;DHT22;33950;48.154;16.316;2023-01-26T22:17:59;2.80;99.10
48162;DHT22;33950;48.154;16.316;2023-01-26T22:20:46;2.80;99.20
48162;DHT22;33950;48.154;16.316;2023-01-26T22:23:34;2.90;99.10
48162;DHT22;33950;48.154;16.316;2023-01-26T22:26:21;2.90;99.00
48162;DHT22;33950;48.154;16.316;2023-01-26T22:29:09;2.90;99.00
48162;DHT22;33950;48.154;16.316;2023-01-26T22:31:56;3.00;98.90
48162;DHT22;33950;48.154;16.316;2023-01-26T22:34:43;2.90;98.80
48162;DHT22;33950;48.154;16.316;2023-01-26T22:37:29;2.80;98.90
48162;DHT22;33950;48.154;16.316;2023-01-26T22:40:16;2.80;99.10
48162;DHT22;33950;48.154;16.316;2023-01-26T22:43:03;2.80;99.10
48162;DHT22;33950;48.154;16.316;2023-01-26T22:45:49;2.90;99.00
48162;DHT22;33950;48.154;16.316;2023-01-26T22:48:35;2.80;98.90
48162;DHT22;33950;48.154;16.316;2023-01-26T22:51:24;2.90;98.80
48162;DHT22;33950;48.154;16.316;2023-01-26T22:54:10;2.90;98.80
48162;DHT22;33950;48.154;16.316;2023-01-26T22:56:56;2.90;98.70
48162;DHT22;33950;48.154;16.316;2023-01-26T22:59:42;2.90;98.80
48162;DHT22;33950;48.154;16.316;2023-01-26T23:02:28;2.90;98.80
48162;DHT22;33950;48.154;16.316;2023-01-26T23:05:15;2.90;99.00
48162;DHT22;33950;48.154;16.316;2023-01-26T23:08:02;2.80;99.10
48162;DHT22;33950;48.154;16.316;2023-01-26T23:10:48;2.70;99.00
48162;DHT22;33950;48.154;16.316;2023-01-26T23:13:35;2.80;99.30
48162;DHT22;33950;48.154;16.316;2023-01-26T23:16:22;2.90;99.20
48162;DHT22;33950;48.154;16.316;2023-01-26T23:19:08;2.80;98.80
48162;DHT22;33950;48.154;16.316;2023-01-26T23:21:54;2.90;98.70
48162;DHT22;33950;48.154;16.316;2023-01-26T23:24:42;2.90;98.80
48162;DHT22;33950;48.154;16.316;2023-01-26T23:27:48;3.00;98.80
48162;DHT22;33950;48.154;16.316;2023-01-26T23:30:34;3.00;98.40
48162;DHT22;33950;48.154;16.316;2023-01-26T23:33:21;2.90;98.50
48162;DHT22;33950;48.154;16.316;2023-01-26T23:36:09;2.90;98.40
48162;DHT22;33950;48.154;16.316;2023-01-26T23:38:55;3.00;98.50
48162;DHT22;33950;48.154;16.316;2023-01-26T23:41:42;3.00;98.30
48162;DHT22;33950;48.154;16.316;2023-01-26T23:44:28;2.80;98.30
48162;DHT22;33950;48.154;16.316;2023-01-26T23:47:14;2.80;98.20
48162;DHT22;33950;48.154;16.316;2023-01-26T23:50:01;2.80;98.30
48162;DHT22;33950;48.154;16.316;2023-01-26T23:52:47;2.80;98.00
48162;DHT22;33950;48.154;16.316;2023-01-26T23:55:33;2.90;97.90
48162;DHT22;33950;48.154;16.316;2023-01-26T23:58:20;2.90;98.30
